createdAt,value
2022-12-09T00:01:36.087Z,86.30
2022-12-09T00:04:07.525Z,85.89
2022-12-09T00:06:38.925Z,86.05
2022-12-09T00:09:14.756Z,86.13
2022-12-09T00:11:46.290Z,86.20
2022-12-09T00:14:17.649Z,86.16
2022-12-09T00:16:48.901Z,86.34
2022-12-09T00:19:19.919Z,86.37
2022-12-09T00:21:51.055Z,86.42
2022-12-09T00:24:22.290Z,86.54
2022-12-09T00:26:53.424Z,86.63
2022-12-09T00:29:24.396Z,86.57
2022-12-09T00:31:55.574Z,86.59
2022-12-09T00:34:26.666Z,86.64
2022-12-09T00:36:57.613Z,86.68
2022-12-09T00:39:29.429Z,86.67
2022-12-09T00:42:00.417Z,86.52
2022-12-09T00:44:31.574Z,86.54
2022-12-09T00:47:03.040Z,86.60
2022-12-09T00:49:34.211Z,86.71
2022-12-09T00:52:05.448Z,86.70
2022-12-09T00:54:36.853Z,86.57
2022-12-09T00:57:08.270Z,86.93
2022-12-09T00:59:39.552Z,86.55
2022-12-09T01:02:10.917Z,86.79
2022-12-09T01:04:42.440Z,86.79
2022-12-09T01:07:12.495Z,86.84
2022-12-09T01:09:43.337Z,86.58
2022-12-09T01:12:14.115Z,86.93
2022-12-09T01:14:45.075Z,87.23
2022-12-09T01:17:16.314Z,87.31
2022-12-09T01:19:47.322Z,87.25
2022-12-09T01:22:19.087Z,87.27
2022-12-09T01:24:50.335Z,87.52
2022-12-09T01:27:19.883Z,87.63
2022-12-09T01:29:51.061Z,87.62
2022-12-09T01:32:22.761Z,87.63
2022-12-09T01:34:54.215Z,87.46
2022-12-09T01:37:25.410Z,87.38
2022-12-09T01:39:56.362Z,87.35
2022-12-09T01:42:28.969Z,87.12
2022-12-09T01:45:34.642Z,87.13
2022-12-09T01:48:08.510Z,87.06
2022-12-09T01:50:42.950Z,86.90
2022-12-09T01:53:16.737Z,87.01
2022-12-09T01:55:49.357Z,86.66
2022-12-09T01:58:20.966Z,86.78
2022-12-09T02:00:50.401Z,86.98
2022-12-09T02:03:21.538Z,87.18
2022-12-09T02:05:51.622Z,87.36
2022-12-09T02:08:22.671Z,87.27
2022-12-09T02:11:06.286Z,87.46
2022-12-09T02:13:45.041Z,87.43
2022-12-09T02:16:19.406Z,87.51
2022-12-09T02:18:58.321Z,87.16
2022-12-09T02:21:37.567Z,86.98
2022-12-09T02:24:14.882Z,86.76
2022-12-09T02:26:51.757Z,86.75
2022-12-09T02:29:43.288Z,86.87
2022-12-09T02:32:36.115Z,86.98
2022-12-09T02:35:11.956Z,87.14
2022-12-09T02:37:50.530Z,87.29
2022-12-09T02:40:26.321Z,87.26
2022-12-09T02:42:59.560Z,87.19
2022-12-09T02:45:33.293Z,87.21
2022-12-09T02:48:06.301Z,87.17
2022-12-09T02:50:40.601Z,87.18
2022-12-09T02:53:14.759Z,87.27
2022-12-09T02:55:49.060Z,87.38
2022-12-09T02:58:20.096Z,87.39
2022-12-09T03:00:52.292Z,87.53
2022-12-09T03:03:23.535Z,87.54
2022-12-09T03:06:02.234Z,87.45
2022-12-09T03:08:40.237Z,87.68
2022-12-09T03:11:14.387Z,87.61
2022-12-09T03:13:53.438Z,87.36
2022-12-09T03:16:32.673Z,87.27
2022-12-09T03:19:08.937Z,86.82
2022-12-09T03:21:44.808Z,86.79
2022-12-09T03:24:19.537Z,86.40
2022-12-09T03:26:53.184Z,86.51
2022-12-09T03:29:28.248Z,86.38
2022-12-09T03:32:02.958Z,86.26
2022-12-09T03:34:39.793Z,86.31
2022-12-09T03:37:12.853Z,86.23
2022-12-09T03:39:47.772Z,86.44
2022-12-09T03:42:22.815Z,86.39
2022-12-09T03:44:57.291Z,86.23
2022-12-09T03:47:28.791Z,86.23
2022-12-09T03:50:00.889Z,86.12
2022-12-09T03:52:38.547Z,86.21
2022-12-09T03:55:14.115Z,85.97
2022-12-09T03:57:47.857Z,85.96
2022-12-09T04:00:19.668Z,86.18
2022-12-09T04:02:51.056Z,85.97
2022-12-09T04:05:22.635Z,85.97
2022-12-09T04:07:54.711Z,85.89
2022-12-09T04:10:25.748Z,85.95
2022-12-09T04:12:57.193Z,86.13
2022-12-09T04:15:28.752Z,86.09
2022-12-09T04:18:00.618Z,86.01
2022-12-09T04:20:32.078Z,86.12
2022-12-09T04:23:03.593Z,86.32
2022-12-09T04:25:34.784Z,86.17
2022-12-09T04:28:05.915Z,86.06
2022-12-09T04:30:37.358Z,85.95
2022-12-09T04:33:08.625Z,85.97
2022-12-09T04:35:39.788Z,85.69
2022-12-09T04:38:10.938Z,85.63
2022-12-09T04:40:42.242Z,85.48
2022-12-09T04:43:13.385Z,85.61
2022-12-09T04:45:44.877Z,85.71
2022-12-09T04:48:16.114Z,86.00
2022-12-09T04:50:47.321Z,85.88
2022-12-09T04:53:18.417Z,85.75
2022-12-09T04:55:49.648Z,85.42
2022-12-09T04:58:21.108Z,85.14
2022-12-09T05:00:52.163Z,84.98
2022-12-09T05:03:23.930Z,85.23
2022-12-09T05:05:55.250Z,85.25
2022-12-09T05:08:31.517Z,85.32
2022-12-09T05:11:03.369Z,85.11
2022-12-09T05:13:33.207Z,85.21
2022-12-09T05:16:12.127Z,84.92
2022-12-09T05:18:48.218Z,84.80
2022-12-09T05:21:21.142Z,84.88
2022-12-09T05:23:52.958Z,84.71
2022-12-09T05:26:24.945Z,84.70
2022-12-09T05:28:56.638Z,84.51
2022-12-09T05:31:27.636Z,84.57
2022-12-09T05:33:59.818Z,84.56
2022-12-09T05:36:31.683Z,84.31
2022-12-09T05:39:03.189Z,84.23
2022-12-09T05:41:34.380Z,84.31
2022-12-09T05:44:05.701Z,84.39
2022-12-09T05:46:36.876Z,84.30
2022-12-09T05:49:08.775Z,84.29
2022-12-09T05:51:40.302Z,84.22
2022-12-09T05:54:11.336Z,84.17
2022-12-09T05:56:47.844Z,84.25
2022-12-09T05:59:19.505Z,84.17
2022-12-09T06:01:51.148Z,84.35
2022-12-09T06:04:22.375Z,84.39
2022-12-09T06:06:54.464Z,84.37
2022-12-09T06:09:26.625Z,84.38
2022-12-09T06:11:58.211Z,84.46
2022-12-09T06:14:29.764Z,84.53
2022-12-09T06:17:00.967Z,84.48
2022-12-09T06:19:32.704Z,84.29
2022-12-09T06:22:02.689Z,84.34
2022-12-09T06:24:34.180Z,84.52
2022-12-09T06:27:05.290Z,84.70
2022-12-09T06:29:36.671Z,84.87
2022-12-09T06:32:07.866Z,84.88
2022-12-09T06:34:39.310Z,84.77
2022-12-09T06:37:10.386Z,84.68
2022-12-09T06:39:41.413Z,84.68
2022-12-09T06:42:12.546Z,84.80
2022-12-09T06:44:44.859Z,84.78
2022-12-09T06:47:16.169Z,84.98
2022-12-09T06:49:47.800Z,84.93
2022-12-09T06:52:19.161Z,84.82
2022-12-09T06:54:50.553Z,84.78
2022-12-09T06:57:21.770Z,84.67
2022-12-09T06:59:53.090Z,84.57
2022-12-09T07:02:24.735Z,84.73
2022-12-09T07:04:55.410Z,84.67
2022-12-09T07:07:27.024Z,84.70
2022-12-09T07:09:58.152Z,84.56
2022-12-09T07:12:28.540Z,84.41
2022-12-09T07:14:59.421Z,84.46
2022-12-09T07:17:30.635Z,84.58
2022-12-09T07:20:06.626Z,84.41
2022-12-09T07:22:39.067Z,84.55
2022-12-09T07:25:11.203Z,84.53
2022-12-09T07:27:42.952Z,84.41
2022-12-09T07:30:14.905Z,84.03
2022-12-09T07:32:46.541Z,84.05
2022-12-09T07:35:18.078Z,84.20
2022-12-09T07:37:49.263Z,84.12
2022-12-09T07:40:20.467Z,84.18
2022-12-09T07:42:54.883Z,84.14
2022-12-09T07:45:30.243Z,84.31
2022-12-09T07:48:01.538Z,84.30
2022-12-09T07:50:33.207Z,84.31
2022-12-09T07:53:04.449Z,84.50
2022-12-09T07:55:36.790Z,84.57
2022-12-09T07:58:07.879Z,84.42
2022-12-09T08:00:39.109Z,84.52
2022-12-09T08:03:10.337Z,84.67
2022-12-09T08:05:49.163Z,84.57
2022-12-09T08:08:21.205Z,84.82
2022-12-09T08:10:50.971Z,85.06
2022-12-09T08:13:22.315Z,84.96
2022-12-09T08:15:53.495Z,85.12
2022-12-09T08:18:25.300Z,85.15
2022-12-09T08:20:56.733Z,85.64
2022-12-09T08:23:28.378Z,85.92
2022-12-09T08:25:59.509Z,86.28
2022-12-09T08:28:31.698Z,86.61
2022-12-09T08:31:09.297Z,86.35
2022-12-09T08:33:41.608Z,87.01
2022-12-09T08:36:15.321Z,87.05
2022-12-09T08:38:47.489Z,87.63
2022-12-09T08:41:20.792Z,88.05
2022-12-09T08:43:51.910Z,88.11
2022-12-09T08:46:23.603Z,88.23
2022-12-09T08:48:55.456Z,88.18
2022-12-09T08:51:26.814Z,88.34
2022-12-09T08:53:58.764Z,88.31
2022-12-09T08:56:30.586Z,88.23
2022-12-09T08:59:02.074Z,88.24
2022-12-09T09:01:35.796Z,88.27
2022-12-09T09:04:12.786Z,88.11
2022-12-09T09:06:47.036Z,87.98
2022-12-09T09:09:19.521Z,88.06
2022-12-09T09:11:52.051Z,87.78
2022-12-09T09:14:23.634Z,87.87
2022-12-09T09:16:55.202Z,87.82
2022-12-09T09:19:27.708Z,87.95
2022-12-09T09:21:59.274Z,87.90
2022-12-09T09:24:30.835Z,87.76
2022-12-09T09:27:02.143Z,87.95
2022-12-09T09:29:33.564Z,88.04
2022-12-09T09:32:04.859Z,88.27
2022-12-09T09:34:36.154Z,88.41
2022-12-09T09:37:06.209Z,88.15
2022-12-09T09:39:37.477Z,88.11
2022-12-09T09:42:14.726Z,88.09
2022-12-09T09:44:49.303Z,88.18
2022-12-09T09:47:30.386Z,87.83
2022-12-09T09:50:09.176Z,87.88
2022-12-09T09:52:42.806Z,87.48
2022-12-09T09:55:19.926Z,87.48
2022-12-09T09:57:58.866Z,87.22
2022-12-09T10:00:33.502Z,87.25
2022-12-09T10:03:11.717Z,87.40
2022-12-09T10:05:51.755Z,87.30
2022-12-09T10:08:33.684Z,87.30
2022-12-09T10:11:13.372Z,87.15
2022-12-09T10:13:53.888Z,87.17
2022-12-09T10:16:31.862Z,87.08
2022-12-09T10:19:10.112Z,86.66
2022-12-09T10:21:45.336Z,86.74
2022-12-09T10:24:25.457Z,86.66
2022-12-09T10:27:05.621Z,86.66
2022-12-09T10:29:54.925Z,86.57
2022-12-09T10:32:31.647Z,86.59
2022-12-09T10:35:13.432Z,86.31
2022-12-09T10:37:45.982Z,86.35
2022-12-09T10:40:23.322Z,85.79
2022-12-09T10:43:16.854Z,85.74
2022-12-09T10:48:45.497Z,85.88
2022-12-09T10:51:19.679Z,86.11
2022-12-09T10:53:54.052Z,86.08
2022-12-09T10:56:29.056Z,85.84
2022-12-09T10:59:18.862Z,85.93
2022-12-09T11:01:55.875Z,85.73
2022-12-09T11:04:29.800Z,85.71
2022-12-09T11:07:06.817Z,85.68
2022-12-09T11:09:40.430Z,85.60
2022-12-09T11:12:21.383Z,85.72
2022-12-09T11:14:56.246Z,85.41
2022-12-09T11:17:29.964Z,85.69
2022-12-09T11:20:21.096Z,85.98
2022-12-09T11:23:16.003Z,85.66
2022-12-09T11:25:56.400Z,85.34
2022-12-09T11:28:31.041Z,85.38
2022-12-09T11:31:28.282Z,84.90
2022-12-09T11:33:59.268Z,84.89
2022-12-09T11:36:34.289Z,85.04
2022-12-09T11:39:21.541Z,84.84
2022-12-09T11:42:16.478Z,84.77
2022-12-09T11:44:56.603Z,84.96
2022-12-09T11:47:57.234Z,84.43
2022-12-09T11:50:31.576Z,84.66
2022-12-09T11:53:27.727Z,84.55
2022-12-09T11:56:05.535Z,84.09
2022-12-09T11:58:42.765Z,84.52
2022-12-09T12:01:20.135Z,84.30
2022-12-09T12:03:54.892Z,83.84
2022-12-09T12:06:31.033Z,84.10
2022-12-09T12:09:07.548Z,84.28
2022-12-09T12:11:42.963Z,84.40
2022-12-09T12:14:17.932Z,84.23
2022-12-09T12:16:56.270Z,84.16
2022-12-09T12:19:31.883Z,84.50
2022-12-09T12:22:28.022Z,84.72
2022-12-09T12:25:17.499Z,84.39
2022-12-09T12:27:56.536Z,84.42
2022-12-09T12:30:33.975Z,84.45
2022-12-09T12:36:28.152Z,84.79
2022-12-09T12:39:12.018Z,84.47
2022-12-09T12:41:47.166Z,84.39
2022-12-09T12:44:50.189Z,84.75
2022-12-09T12:47:25.829Z,85.08
2022-12-09T12:50:19.787Z,85.02
2022-12-09T12:52:59.565Z,84.77
2022-12-09T12:55:47.025Z,85.01
2022-12-09T12:58:30.642Z,85.10
2022-12-09T13:01:08.630Z,85.18
2022-12-09T13:03:48.081Z,85.27
2022-12-09T13:06:22.221Z,85.16
2022-12-09T13:09:01.430Z,85.12
2022-12-09T13:11:43.206Z,85.13
2022-12-09T13:14:18.982Z,85.27
2022-12-09T13:16:51.111Z,85.27
2022-12-09T13:19:27.983Z,85.27
2022-12-09T13:21:59.745Z,85.16
2022-12-09T13:24:40.415Z,85.08
2022-12-09T13:27:18.334Z,85.28
2022-12-09T13:29:57.760Z,85.43
2022-12-09T13:32:45.658Z,85.57
2022-12-09T13:35:21.098Z,85.50
2022-12-09T13:38:03.028Z,85.59
2022-12-09T13:40:37.246Z,85.64
2022-12-09T13:43:13.917Z,85.49
2022-12-09T13:45:55.639Z,85.37
2022-12-09T13:48:47.709Z,85.25
2022-12-09T13:51:20.093Z,84.58
2022-12-09T13:54:02.192Z,83.72
2022-12-09T13:56:36.229Z,82.97
2022-12-09T13:59:38.297Z,83.44
2022-12-09T14:02:21.926Z,83.54
2022-12-09T14:05:01.278Z,83.55
2022-12-09T14:07:39.369Z,83.56
2022-12-09T14:10:40.339Z,83.71
2022-12-09T14:13:32.001Z,83.71
2022-12-09T14:16:35.023Z,83.63
2022-12-09T14:19:43.563Z,83.44
2022-12-09T14:22:40.768Z,83.22
2022-12-09T14:25:54.647Z,83.56
2022-12-09T14:28:41.719Z,83.47
2022-12-09T14:31:12.868Z,83.11
2022-12-09T14:33:47.456Z,83.07
2022-12-09T14:36:28.484Z,82.77
2022-12-09T14:42:02.713Z,83.19
2022-12-09T14:44:39.578Z,83.19
2022-12-09T14:47:19.715Z,83.36
2022-12-09T14:49:51.906Z,83.38
2022-12-09T14:52:26.327Z,83.50
2022-12-09T14:55:00.303Z,83.22
2022-12-09T14:57:35.682Z,83.04
2022-12-09T15:00:09.239Z,82.91
2022-12-09T15:02:40.754Z,82.94
2022-12-09T15:05:18.924Z,82.81
2022-12-09T15:07:50.136Z,82.92
2022-12-09T15:10:25.389Z,82.85
2022-12-09T15:13:01.346Z,82.70
2022-12-09T15:15:36.613Z,82.32
2022-12-09T15:18:09.798Z,82.52
2022-12-09T15:20:42.773Z,81.98
2022-12-09T15:23:21.886Z,82.02
2022-12-09T15:25:54.581Z,82.08
2022-12-09T15:28:27.241Z,81.66
2022-12-09T15:31:01.012Z,81.52
2022-12-09T15:33:41.034Z,81.60
2022-12-09T15:36:15.966Z,81.66
2022-12-09T15:38:50.130Z,81.81
2022-12-09T15:41:39.839Z,82.05
2022-12-09T15:44:15.547Z,81.95
2022-12-09T15:46:48.455Z,82.40
2022-12-09T15:49:33.087Z,82.44
2022-12-09T15:52:07.766Z,82.44
2022-12-09T15:54:42.491Z,82.63
2022-12-09T15:57:19.055Z,82.55
2022-12-09T15:59:56.134Z,82.91
2022-12-09T16:02:30.111Z,82.93
2022-12-09T16:05:06.270Z,82.54
2022-12-09T16:07:38.461Z,82.74
2022-12-09T16:10:13.459Z,82.73
2022-12-09T16:12:45.633Z,82.16
2022-12-09T16:15:44.918Z,82.10
2022-12-09T16:18:21.255Z,81.99
2022-12-09T16:21:21.962Z,82.00
2022-12-09T16:23:56.830Z,81.52
2022-12-09T16:26:33.839Z,81.09
2022-12-09T16:29:07.636Z,81.38
2022-12-09T16:31:39.144Z,81.50
2022-12-09T16:34:20.038Z,81.09
2022-12-09T16:36:57.694Z,81.14
2022-12-09T16:39:45.138Z,81.22
2022-12-09T16:42:28.520Z,80.96
2022-12-09T16:45:31.862Z,80.36
2022-12-09T16:48:04.269Z,80.79
2022-12-09T16:50:38.277Z,80.92
2022-12-09T16:53:17.472Z,81.03
2022-12-09T16:55:54.316Z,80.51
2022-12-09T16:58:25.701Z,80.80
2022-12-09T17:00:57.396Z,80.75
2022-12-09T17:03:36.068Z,80.77
2022-12-09T17:06:07.856Z,80.30
2022-12-09T17:08:38.835Z,80.35
2022-12-09T17:11:10.219Z,80.24
2022-12-09T17:13:41.778Z,80.49
2022-12-09T17:16:12.740Z,80.52
2022-12-09T17:18:43.939Z,80.38
2022-12-09T17:21:16.220Z,80.43
2022-12-09T17:23:48.080Z,80.58
2022-12-09T17:26:21.429Z,80.00
2022-12-09T17:28:56.811Z,79.86
2022-12-09T17:31:30.765Z,80.07
2022-12-09T17:34:02.039Z,80.27
2022-12-09T17:36:33.254Z,80.04
2022-12-09T17:39:03.599Z,80.39
2022-12-09T17:41:33.232Z,80.11
2022-12-09T17:44:04.426Z,80.39
2022-12-09T17:46:34.124Z,80.00
2022-12-09T17:49:05.567Z,80.65
2022-12-09T17:51:36.967Z,80.45
2022-12-09T17:54:08.704Z,80.21
2022-12-09T17:56:40.111Z,80.37
2022-12-09T17:59:15.239Z,80.02
2022-12-09T18:01:47.152Z,80.05
2022-12-09T18:04:18.202Z,80.11
2022-12-09T18:06:49.233Z,79.93
2022-12-09T18:09:22.537Z,80.11
2022-12-09T18:11:53.465Z,80.04
2022-12-09T18:14:25.558Z,79.83
2022-12-09T18:16:56.606Z,80.23
2022-12-09T18:19:28.476Z,80.01
2022-12-09T18:21:59.897Z,79.45
2022-12-09T18:24:31.109Z,79.40
2022-12-09T18:27:02.409Z,79.49
2022-12-09T18:29:33.670Z,79.55
2022-12-09T18:32:03.217Z,79.55
2022-12-09T18:34:35.722Z,79.22
2022-12-09T18:37:06.799Z,79.48
2022-12-09T18:39:38.000Z,79.51
2022-12-09T18:42:09.234Z,79.40
2022-12-09T18:44:40.264Z,79.14
2022-12-09T18:47:11.152Z,79.52
2022-12-09T18:49:42.134Z,79.22
2022-12-09T18:52:13.194Z,79.10
2022-12-09T18:54:44.423Z,79.35
2022-12-09T18:57:15.538Z,79.40
2022-12-09T18:59:48.680Z,79.28
2022-12-09T19:02:20.260Z,79.76
2022-12-09T19:04:51.457Z,79.79
2022-12-09T19:07:22.350Z,79.52
2022-12-09T19:09:53.907Z,79.83
2022-12-09T19:15:15.804Z,80.54
2022-12-09T19:17:47.272Z,80.62
2022-12-09T19:20:17.016Z,80.81
2022-12-09T19:22:57.285Z,80.84
2022-12-09T19:25:28.355Z,81.18
2022-12-09T19:27:59.485Z,81.16
2022-12-09T19:30:31.484Z,81.19
2022-12-09T19:33:02.412Z,80.91
2022-12-09T19:35:33.550Z,80.91
2022-12-09T19:38:04.434Z,81.13
2022-12-09T19:40:35.522Z,81.04
2022-12-09T19:43:11.385Z,81.23
2022-12-09T19:45:42.475Z,81.30
2022-12-09T19:48:13.399Z,81.46
2022-12-09T19:50:44.457Z,81.20
2022-12-09T19:53:15.439Z,81.35
2022-12-09T19:55:49.120Z,81.17
2022-12-09T19:58:20.701Z,81.21
2022-12-09T20:00:51.884Z,81.09
2022-12-09T20:03:22.965Z,81.12
2022-12-09T20:05:55.987Z,81.22
2022-12-09T20:08:27.154Z,81.21
2022-12-09T20:10:58.329Z,80.85
2022-12-09T20:13:32.035Z,81.11
2022-12-09T20:16:07.725Z,81.20
2022-12-09T20:18:39.274Z,81.19
2022-12-09T20:21:12.584Z,81.30
2022-12-09T20:23:45.100Z,81.22
2022-12-09T20:26:18.616Z,81.23
2022-12-09T20:28:51.278Z,81.29
2022-12-09T20:31:24.350Z,81.19
2022-12-09T20:33:57.847Z,81.31
2022-12-09T20:36:30.989Z,81.37
2022-12-09T20:39:05.986Z,81.21
2022-12-09T20:41:37.161Z,81.18
2022-12-09T20:44:09.980Z,81.13
2022-12-09T20:46:42.226Z,81.33
2022-12-09T20:49:13.230Z,81.64
2022-12-09T20:51:45.405Z,81.62
2022-12-09T20:54:16.484Z,81.58
2022-12-09T20:56:47.926Z,81.73
2022-12-09T20:59:19.330Z,81.70
2022-12-09T21:01:50.337Z,81.76
2022-12-09T21:04:21.735Z,81.73
2022-12-09T21:06:51.345Z,81.93
2022-12-09T21:09:27.075Z,81.78
2022-12-09T21:11:58.171Z,81.86
2022-12-09T21:14:33.173Z,81.80
2022-12-09T21:17:04.461Z,81.83
2022-12-09T21:19:34.402Z,81.94
2022-12-09T21:22:06.522Z,82.02
2022-12-09T21:24:37.470Z,82.10
2022-12-09T21:27:09.306Z,81.96
2022-12-09T21:29:40.878Z,82.05
2022-12-09T21:32:11.981Z,82.07
2022-12-09T21:34:43.011Z,81.88
2022-12-09T21:37:14.168Z,81.89
2022-12-09T21:39:45.216Z,82.06
2022-12-09T21:42:16.404Z,82.08
2022-12-09T21:44:47.719Z,81.86
2022-12-09T21:47:18.613Z,81.74
2022-12-09T21:49:49.697Z,81.92
2022-12-09T21:52:20.614Z,81.89
2022-12-09T21:54:55.277Z,81.90
2022-12-09T21:57:26.630Z,82.04
2022-12-09T21:59:57.635Z,81.90
2022-12-09T22:02:28.800Z,81.88
2022-12-09T22:04:59.798Z,81.88
2022-12-09T22:07:30.758Z,81.91
2022-12-09T22:10:01.702Z,82.00
2022-12-09T22:12:33.116Z,82.01
2022-12-09T22:15:04.558Z,81.96
2022-12-09T22:17:36.016Z,81.72
2022-12-09T22:20:48.861Z,81.73
2022-12-09T22:23:00.023Z,81.48
2022-12-09T22:25:31.203Z,81.42
2022-12-09T22:28:02.269Z,81.40
2022-12-09T22:30:35.880Z,81.46
2022-12-09T22:33:09.679Z,81.15
2022-12-09T22:35:40.672Z,80.78
2022-12-09T22:38:14.574Z,80.42
2022-12-09T22:40:46.326Z,80.72
2022-12-09T22:43:17.645Z,80.62
2022-12-09T22:45:49.163Z,80.55
2022-12-09T22:48:20.422Z,80.72
2022-12-09T22:50:51.402Z,80.54
2022-12-09T22:53:22.445Z,80.77
2022-12-09T22:55:53.535Z,81.16
2022-12-09T22:58:24.820Z,80.97
2022-12-09T23:00:54.445Z,81.22
2022-12-09T23:03:26.425Z,81.50
2022-12-09T23:05:57.810Z,81.34
2022-12-09T23:08:28.612Z,80.93
2022-12-09T23:11:04.605Z,80.95
2022-12-09T23:13:40.650Z,81.17
2022-12-09T23:16:13.950Z,80.99
2022-12-09T23:18:45.310Z,81.19
2022-12-09T23:21:19.086Z,81.27
2022-12-09T23:23:52.505Z,81.31
2022-12-09T23:26:26.895Z,80.75
2022-12-09T23:29:00.048Z,80.87
2022-12-09T23:31:34.417Z,81.36
2022-12-09T23:34:07.233Z,80.97
2022-12-09T23:36:40.819Z,80.85
2022-12-09T23:39:13.691Z,81.11
2022-12-09T23:41:46.524Z,80.70
2022-12-09T23:44:19.583Z,80.98
2022-12-09T23:46:51.246Z,81.04
2022-12-09T23:49:22.394Z,81.78
2022-12-09T23:51:52.123Z,82.14
2022-12-09T23:54:23.059Z,81.79
2022-12-09T23:56:54.186Z,81.98
2022-12-09T23:59:25.780Z,81.65
